Time;durP1;ratioP1;P1;durP2;ratioP2;P2;SDS_P1;SDS_P2;PMS_P1;PMS_P2;Temp;Humidity;BMP_temperature;BMP_pressure;BME280_temperature;BME280_humidity;BME280_pressure;Samples;Min_cycle;Max_cycle;Signal;HPM_P1;HPM_P2
2022/04/19 00:04:24;;;;;;;10.30;4.80;;;;;;;4.86;52.86;99435.63;214205;1279;140906;-68
2022/04/19 00:09:28;;;;;;;4.10;2.90;;;;;;;4.87;53.36;99428.67;214281;1280;139964;-66
2022/04/19 00:14:34;;;;;;;5.00;3.60;;;;;;;4.84;53.60;99428.07;213605;1279;139263;-67
2022/04/19 00:19:38;;;;;;;5.70;4.00;;;;;;;4.79;53.62;99428.68;215529;1279;140678;-70
2022/04/19 00:24:40;;;;;;;6.00;3.40;;;;;;;4.78;53.52;99424.73;213558;1280;139400;-67
2022/04/19 00:29:43;;;;;;;5.70;3.60;;;;;;;4.72;53.71;99422.39;215221;1279;139945;-67
2022/04/19 00:34:46;;;;;;;10.90;3.90;;;;;;;4.68;54.34;99426.85;215273;1279;139898;-65
2022/04/19 00:39:49;;;;;;;6.70;3.70;;;;;;;4.63;55.08;99422.42;214487;1279;139787;-68
2022/04/19 00:44:52;;;;;;;6.20;3.40;;;;;;;4.57;55.33;99421.30;214659;1280;139122;-68
2022/04/19 00:49:57;;;;;;;6.10;4.20;;;;;;;4.52;55.76;99421.31;214834;1279;140769;-67
2022/04/19 00:55:02;;;;;;;8.40;5.00;;;;;;;4.51;55.52;99418.87;214971;1279;140203;-67
2022/04/19 01:00:12;;;;;;;7.60;4.20;;;;;;;4.53;55.76;99413.55;214743;1279;139418;-67
2022/04/19 01:05:16;;;;;;;8.70;5.50;;;;;;;4.44;56.05;99399.61;213248;1279;139600;-67
2022/04/19 01:10:18;;;;;;;9.40;5.90;;;;;;;4.42;56.56;99402.21;213063;1279;139006;-67
2022/04/19 01:15:22;;;;;;;5.30;4.80;;;;;;;4.44;56.59;99404.33;213615;1279;230000;-67
2022/04/19 01:20:24;;;;;;;10.80;5.30;;;;;;;4.45;57.33;99398.23;213208;1279;140957;-67
2022/04/19 01:25:28;;;;;;;7.50;5.40;;;;;;;4.46;57.76;99394.74;212938;1279;139363;-66
2022/04/19 01:30:32;;;;;;;8.90;4.30;;;;;;;4.47;58.23;99389.30;213582;1279;141527;-69
2022/04/19 01:35:36;;;;;;;5.40;4.30;;;;;;;4.49;58.31;99384.19;213359;1279;142086;-67
2022/04/19 01:40:39;;;;;;;7.80;5.30;;;;;;;4.48;58.78;99381.14;212844;1279;139934;-64
2022/04/19 01:45:41;;;;;;;11.30;5.40;;;;;;;4.49;59.09;99376.07;213139;1279;140950;-66
2022/04/19 01:50:45;;;;;;;7.80;5.50;;;;;;;4.47;59.56;99378.45;213925;1277;141244;-66
2022/04/19 01:55:48;;;;;;;7.90;6.90;;;;;;;4.41;60.40;99378.02;213114;1279;141836;-66
2022/04/19 02:00:51;;;;;;;6.50;3.90;;;;;;;4.33;60.67;99378.94;212992;1279;142200;-66
2022/04/19 02:05:55;;;;;;;5.50;4.20;;;;;;;4.31;61.46;99382.59;214083;1279;140585;-67
2022/04/19 02:11:00;;;;;;;6.90;4.10;;;;;;;4.29;61.89;99385.06;212772;1279;143741;-67
2022/04/19 02:16:03;;;;;;;6.90;4.80;;;;;;;4.17;62.32;99388.61;215594;1279;142859;-68
2022/04/19 02:21:06;;;;;;;4.90;4.50;;;;;;;4.04;63.12;99386.80;215194;1279;150540;-68
2022/04/19 02:26:09;;;;;;;9.30;5.20;;;;;;;4.00;63.66;99381.59;213251;1279;142255;-64
2022/04/19 02:31:13;;;;;;;7.50;4.60;;;;;;;4.02;63.94;99377.70;215466;1279;140027;-67
2022/04/19 02:36:15;;;;;;;6.30;4.60;;;;;;;4.00;64.35;99381.95;215531;1278;140967;-69
2022/04/19 02:41:18;;;;;;;4.90;4.50;;;;;;;4.01;64.97;99376.77;215339;1279;140818;-67
2022/04/19 02:46:22;;;;;;;9.30;4.90;;;;;;;4.04;65.31;99375.68;214288;1279;142604;-66
2022/04/19 02:51:25;;;;;;;6.00;4.50;;;;;;;4.11;65.54;99369.52;214888;1279;142110;-67
2022/04/19 02:56:28;;;;;;;5.00;4.40;;;;;;;4.17;66.07;99369.16;213393;1278;141394;-67
2022/04/19 03:01:31;;;;;;;4.50;3.90;;;;;;;4.10;66.38;99372.04;213856;1279;141965;-66
2022/04/19 03:06:34;;;;;;;4.80;4.00;;;;;;;4.07;66.89;99370.48;213431;1279;140605;-66
2022/04/19 03:11:38;;;;;;;7.40;4.80;;;;;;;4.13;67.35;99366.44;213015;1279;140682;-66
2022/04/19 03:16:41;;;;;;;5.00;4.50;;;;;;;4.16;67.50;99367.63;213787;1279;141897;-66
2022/04/19 03:21:43;;;;;;;5.70;3.80;;;;;;;4.17;67.71;99365.89;213520;1279;143825;-64
2022/04/19 03:32:09;;;;;;;5.70;3.60;;;;;;;4.17;67.90;99372.05;213837;1279;141560;-65
2022/04/19 03:37:13;;;;;;;4.50;3.90;;;;;;;4.05;67.87;99370.65;213774;1279;139772;-65
2022/04/19 03:42:16;;;;;;;5.60;3.60;;;;;;;3.93;68.41;99371.81;213734;1279;139849;-66
2022/04/19 03:47:20;;;;;;;4.80;3.70;;;;;;;3.79;68.45;99374.39;213236;1279;139346;-63
2022/04/19 03:52:22;;;;;;;9.00;5.70;;;;;;;3.69;68.83;99378.20;213224;1279;140904;-66
2022/04/19 03:57:26;;;;;;;8.70;5.30;;;;;;;3.66;69.41;99377.11;213400;1279;138990;-66
2022/04/19 04:02:30;;;;;;;6.30;5.70;;;;;;;3.68;69.37;99375.14;212938;1279;140345;-65
2022/04/19 04:07:38;;;;;;;5.50;5.00;;;;;;;3.63;69.66;99375.21;213377;1279;141579;-64
2022/04/19 04:12:41;;;;;;;6.50;5.70;;;;;;;3.68;70.11;99373.54;212833;1279;142183;-64
2022/04/19 04:17:46;;;;;;;9.90;7.30;;;;;;;3.77;70.41;99375.67;214334;1279;152193;-66
2022/04/19 04:22:49;;;;;;;8.20;5.40;;;;;;;3.83;70.53;99378.98;214242;1277;143111;-67
2022/04/19 04:27:54;;;;;;;6.00;5.40;;;;;;;3.91;70.55;99378.52;212936;1279;140942;-66
2022/04/19 04:32:56;;;;;;;8.10;5.20;;;;;;;3.96;70.72;99378.92;215515;1278;140968;-70
2022/04/19 04:37:58;;;;;;;5.90;5.10;;;;;;;3.96;71.11;99378.33;214254;1279;141002;-67
2022/04/19 04:43:01;;;;;;;7.30;6.20;;;;;;;3.99;70.77;99377.33;214610;1279;140383;-69
2022/04/19 04:53:25;;;;;;;9.00;6.30;;;;;;;4.12;70.76;99386.61;215162;1278;142449;-74
2022/04/19 04:58:28;;;;;;;8.50;5.60;;;;;;;4.20;71.04;99384.64;213436;1279;141751;-70
2022/04/19 05:03:31;;;;;;;7.20;5.50;;;;;;;4.34;71.15;99381.13;214503;1279;141923;-69
2022/04/19 05:08:34;;;;;;;8.70;6.00;;;;;;;4.51;71.19;99385.52;214251;1278;141555;-66
2022/04/19 05:13:37;;;;;;;7.30;5.80;;;;;;;4.68;71.01;99385.38;212920;1278;141451;-67
2022/04/19 05:18:39;;;;;;;6.40;4.20;;;;;;;4.80;71.00;99386.34;213388;1278;140363;-68
2022/04/19 05:23:41;;;;;;;5.00;4.00;;;;;;;4.85;70.63;99391.27;212691;1279;145860;-67
2022/04/19 05:28:43;;;;;;;5.30;4.80;;;;;;;4.93;70.60;99389.77;212479;1278;140652;-66
2022/04/19 05:33:46;;;;;;;5.30;4.50;;;;;;;4.96;70.31;99385.52;212855;1279;141859;-72
2022/04/19 05:38:52;;;;;;;8.90;5.30;;;;;;;4.96;70.23;99387.65;213230;1277;141090;-67
2022/04/19 05:43:57;;;;;;;8.60;5.60;;;;;;;4.90;70.17;99395.66;212970;1279;141084;-65
2022/04/19 05:49:04;;;;;;;12.20;3.90;;;;;;;4.84;70.16;99395.48;213808;1278;140158;-70
2022/04/19 05:54:08;;;;;;;8.60;5.30;;;;;;;4.76;69.97;99396.52;213059;1279;140722;-69
2022/04/19 05:59:12;;;;;;;6.50;4.30;;;;;;;4.68;69.88;99402.03;212923;1279;141305;-68
2022/04/19 06:09:36;;;;;;;4.90;4.50;;;;;;;4.61;69.66;99417.91;213127;1279;142762;-69
2022/04/19 06:14:39;;;;;;;4.70;4.20;;;;;;;4.68;69.44;99418.23;212948;1279;141676;-70
2022/04/19 06:19:43;;;;;;;4.60;4.20;;;;;;;4.71;69.23;99415.39;213538;1279;141376;-69
2022/04/19 06:24:45;;;;;;;6.10;5.10;;;;;;;4.76;69.06;99423.08;213786;1279;140671;-68
2022/04/19 06:29:47;;;;;;;6.70;6.00;;;;;;;4.92;69.18;99426.27;214126;1278;140531;-67
2022/04/19 06:34:53;;;;;;;4.90;4.30;;;;;;;5.01;69.21;99426.37;214548;1278;140825;-65
2022/04/19 06:40:00;;;;;;;6.40;3.30;;;;;;;5.13;69.05;99432.00;214519;1279;140229;-67
2022/04/19 06:45:04;;;;;;;4.70;3.60;;;;;;;5.25;68.98;99434.44;213924;1279;140729;-67
2022/04/19 06:50:06;;;;;;;4.70;4.10;;;;;;;5.21;68.14;99437.30;214225;1279;139448;-67
2022/04/19 06:55:09;;;;;;;7.50;5.90;;;;;;;5.20;68.19;99437.47;215281;1279;140556;-68
2022/04/19 07:00:12;;;;;;;4.20;3.80;;;;;;;5.31;68.32;99439.84;214116;1279;140687;-65
2022/04/19 07:05:15;;;;;;;4.80;4.40;;;;;;;5.43;68.03;99441.31;212954;1278;140246;-64
2022/04/19 07:10:18;;;;;;;5.60;4.40;;;;;;;5.54;68.14;99449.67;212281;1278;139846;-66
2022/04/19 07:15:21;;;;;;;5.50;4.10;;;;;;;5.52;67.81;99446.91;215069;1278;142691;-67
2022/04/19 07:31:33;;;;;;;5.50;4.90;;;;;;;5.22;67.34;99464.83;211168;1285;140597;-64
2022/04/19 07:36:42;;;;;;;4.70;4.00;;;;;;;5.11;67.35;99467.81;213321;1278;140284;-65
2022/04/19 07:41:46;;;;;;;6.30;5.50;;;;;;;5.11;67.82;99477.54;213471;1278;139173;-66
2022/04/19 07:46:50;;;;;;;5.70;4.80;;;;;;;5.22;68.12;99490.92;212750;1277;139934;-63
2022/04/19 07:51:54;;;;;;;5.40;4.90;;;;;;;5.22;67.85;99489.77;213683;1279;139113;-65
2022/04/19 07:56:56;;;;;;;7.10;5.20;;;;;;;5.11;67.69;99497.53;213364;1278;141021;-67
2022/04/19 08:02:00;;;;;;;7.60;5.10;;;;;;;4.99;67.92;99506.55;213177;1277;141067;-65
2022/04/19 08:07:06;;;;;;;10.50;5.70;;;;;;;4.92;67.95;99509.15;213114;1279;140680;-65
2022/04/19 08:12:11;;;;;;;6.60;5.90;;;;;;;4.83;67.94;99517.41;213569;1279;140629;-66
2022/04/19 08:17:18;;;;;;;7.40;6.10;;;;;;;4.75;68.08;99522.33;214568;1279;139537;-66
2022/04/19 08:22:21;;;;;;;7.80;7.00;;;;;;;4.72;68.37;99528.77;213701;1278;139650;-64
2022/04/19 08:27:23;;;;;;;14.10;8.70;;;;;;;4.73;68.58;99534.50;214296;1278;139958;-68
2022/04/19 08:32:28;;;;;;;10.50;8.80;;;;;;;4.88;68.70;99538.16;213767;1279;139987;-66
2022/04/19 08:37:34;;;;;;;13.00;8.20;;;;;;;5.00;68.68;99545.38;214323;1279;139747;-67
2022/04/19 08:42:40;;;;;;;10.70;7.10;;;;;;;5.06;68.53;99549.06;214437;1279;140445;-71
2022/04/19 08:47:45;;;;;;;9.40;6.90;;;;;;;4.99;68.42;99551.13;215042;1278;139699;-71
2022/04/19 08:57:29;;;;;;;8.90;6.30;;;;;;;4.96;68.37;99559.73;215042;1278;140063;-68
2022/04/19 08:58:12;;;;;;;9.40;8.00;;;;;;;4.97;68.54;99568.00;213505;1280;140812;-70
2022/04/19 09:03:16;;;;;;;24.70;12.20;;;;;;;5.02;68.58;99569.98;215315;1278;141650;-70
2022/04/19 09:08:20;;;;;;;11.70;8.00;;;;;;;5.17;68.78;99576.27;214841;1277;140107;-66
2022/04/19 09:13:26;;;;;;;13.50;7.50;;;;;;;5.39;68.59;99577.67;213653;1278;142000;-67
2022/04/19 09:18:30;;;;;;;9.80;6.70;;;;;;;5.61;68.69;99575.85;214522;1280;139910;-67
2022/04/19 09:23:35;;;;;;;6.90;6.10;;;;;;;5.73;68.22;99580.47;213776;1278;139105;-69
2022/04/19 09:28:39;;;;;;;9.00;7.50;;;;;;;5.75;67.87;99587.63;213898;1279;140352;-68
2022/04/19 09:33:42;;;;;;;11.70;7.10;;;;;;;5.75;67.78;99595.28;213037;1279;141210;-67
2022/04/19 09:38:47;;;;;;;11.60;8.50;;;;;;;5.70;67.79;99594.71;212419;1279;139800;-66
2022/04/19 09:44:06;;;;;;;9.20;7.50;;;;;;;5.60;67.79;99603.63;213628;1279;140789;-65
2022/04/19 09:49:09;;;;;;;8.50;7.30;;;;;;;5.52;68.07;99600.59;213046;1279;140884;-65
2022/04/19 09:54:21;;;;;;;9.80;8.60;;;;;;;5.51;68.25;99607.30;212906;1279;140309;-64
2022/04/19 09:59:29;;;;;;;15.30;9.90;;;;;;;5.52;68.07;99613.73;213658;1279;140570;-65
2022/04/19 10:09:57;;;;;;;10.20;8.40;;;;;;;6.11;68.00;99619.18;213497;1279;151636;-65
2022/04/19 10:15:06;;;;;;;10.90;8.40;;;;;;;6.51;68.07;99619.75;213365;1279;140851;-65
2022/04/19 10:20:12;;;;;;;9.90;8.20;;;;;;;6.74;67.27;99615.68;212725;1279;139791;-69
2022/04/19 10:25:15;;;;;;;7.00;5.90;;;;;;;7.07;67.15;99618.04;214011;1279;143153;-67
2022/04/19 10:30:19;;;;;;;10.30;7.70;;;;;;;7.49;65.90;99621.77;212841;1278;141261;-63
2022/04/19 10:35:23;;;;;;;11.10;7.10;;;;;;;7.66;65.79;99622.70;212834;1279;140325;-69
2022/04/19 10:40:50;;;;;;;8.60;6.50;;;;;;;7.60;64.82;99625.23;214266;1277;140473;-71
2022/04/19 10:45:54;;;;;;;7.10;5.70;;;;;;;7.38;64.60;99631.47;213388;1279;141630;-68
2022/04/19 10:51:29;;;;;;;8.50;6.80;;;;;;;7.19;64.49;99637.21;212359;1279;958056;-65
2022/04/19 10:57:10;;;;;;;10.90;8.00;;;;;;;7.02;64.51;99644.57;215317;1279;141163;-69
2022/04/19 11:02:37;;;;;;;10.20;7.00;;;;;;;6.88;64.38;99650.58;215263;1279;140809;-73
2022/04/19 11:07:44;;;;;;;9.90;7.90;;;;;;;6.89;64.63;99653.95;215205;1279;142038;-70
2022/04/19 11:12:58;;;;;;;8.20;7.00;;;;;;;7.00;64.83;99655.73;215448;1279;138991;-74
2022/04/19 11:18:27;;;;;;;13.00;8.70;;;;;;;7.22;64.27;99657.58;215340;1279;140380;-73
2022/04/19 11:23:45;;;;;;;10.10;8.20;;;;;;;7.57;64.13;99660.58;213476;1278;139958;-72
2022/04/19 11:29:10;;;;;;;7.50;6.40;;;;;;;7.82;63.25;99661.41;214519;1278;141219;-72
2022/04/19 11:34:14;;;;;;;12.00;7.10;;;;;;;8.03;63.29;99663.98;213198;1279;139696;-70
2022/04/19 11:50:24;;;;;;;9.10;7.20;;;;;;;8.41;61.40;99666.34;212738;1278;141155;-68
2022/04/19 11:55:27;;;;;;;9.40;7.60;;;;;;;8.27;61.61;99672.27;213430;1279;140862;-69
2022/04/19 12:00:31;;;;;;;7.80;7.10;;;;;;;8.13;61.82;99673.29;213479;1277;141519;-70
2022/04/19 12:05:34;;;;;;;11.00;7.40;;;;;;;7.97;61.42;99677.31;214081;1276;140584;-72
2022/04/19 12:10:37;;;;;;;11.80;8.30;;;;;;;7.84;61.08;99679.53;214295;1279;139808;-72
2022/04/19 12:15:41;;;;;;;9.40;7.20;;;;;;;7.87;60.97;99677.49;213714;1279;139736;-67
2022/04/19 12:20:45;;;;;;;9.10;7.30;;;;;;;8.00;61.44;99682.88;213804;1278;141308;-69
2022/04/19 12:26:00;;;;;;;7.10;6.40;;;;;;;8.18;61.33;99674.61;213901;1279;140045;-70
2022/04/19 12:31:06;;;;;;;7.00;5.80;;;;;;;8.33;60.81;99666.94;214128;1279;139681;-71
2022/04/19 12:36:12;;;;;;;6.30;5.70;;;;;;;8.54;60.24;99665.20;213000;1279;141031;-72
2022/04/19 12:41:15;;;;;;;12.40;10.30;;;;;;;8.71;59.69;99659.27;214045;1279;140869;-71
2022/04/19 12:46:22;;;;;;;7.10;5.00;;;;;;;9.14;59.43;99651.92;215152;1279;140470;-72
2022/04/19 12:51:26;;;;;;;6.10;5.30;;;;;;;9.41;58.95;99645.16;214078;1279;139503;-71
2022/04/19 12:56:37;;;;;;;4.90;4.40;;;;;;;9.67;57.92;99647.48;214457;1279;139933;-74
2022/04/19 13:01:42;;;;;;;5.50;4.80;;;;;;;9.85;57.95;99649.69;213865;1279;139991;-68
2022/04/19 13:12:19;;;;;;;5.90;4.80;;;;;;;9.82;56.88;99652.50;215507;1279;139866;-68
2022/04/19 13:17:25;;;;;;;5.60;5.10;;;;;;;9.82;56.54;99646.27;214867;1279;141055;-66
2022/04/19 13:22:29;;;;;;;6.10;5.40;;;;;;;9.86;56.19;99648.27;215430;1278;139959;-70
2022/04/19 13:27:35;;;;;;;4.80;4.30;;;;;;;9.84;55.98;99648.48;214834;1279;139432;-72
2022/04/19 13:32:39;;;;;;;6.60;5.90;;;;;;;9.74;55.76;99650.31;214171;1279;141149;-75
2022/04/19 13:43:03;;;;;;;5.60;4.90;;;;;;;9.55;54.87;99643.66;213833;1279;139480;-75
2022/04/19 13:48:08;;;;;;;6.70;4.50;;;;;;;9.64;55.09;99642.45;213055;1279;140095;-68
2022/04/19 13:53:12;;;;;;;7.00;6.30;;;;;;;9.72;54.82;99644.33;214009;1279;139767;-71
2022/04/19 13:58:17;;;;;;;6.80;6.10;;;;;;;9.75;54.84;99638.63;213521;1279;234646;-73
2022/04/19 14:03:20;;;;;;;5.50;4.50;;;;;;;9.71;54.67;99643.32;213295;1279;141164;-70
2022/04/19 14:08:32;;;;;;;6.60;6.00;;;;;;;9.50;54.65;99649.56;212855;1279;139210;-69
2022/04/19 14:13:38;;;;;;;7.40;6.40;;;;;;;9.28;54.52;99652.12;213312;1279;140292;-68
2022/04/19 14:18:41;;;;;;;13.10;6.30;;;;;;;9.14;55.11;99652.30;212733;1279;140070;-70
2022/04/19 14:23:46;;;;;;;6.00;5.30;;;;;;;8.95;54.97;99651.54;213187;1279;140136;-68
2022/04/19 14:34:11;;;;;;;4.70;4.30;;;;;;;8.89;54.40;99646.14;213602;1279;139832;-70
2022/04/19 14:39:20;;;;;;;8.50;6.50;;;;;;;9.12;54.06;99645.04;213385;1279;140600;-70
2022/04/19 14:44:23;;;;;;;11.70;7.00;;;;;;;9.32;53.57;99647.80;212626;1279;139913;-67
2022/04/19 14:49:28;;;;;;;5.80;5.20;;;;;;;9.51;53.36;99646.52;213723;1279;140267;-67
2022/04/19 14:54:31;;;;;;;6.20;5.60;;;;;;;9.66;52.68;99654.17;213020;1279;141437;-66
2022/04/19 14:59:36;;;;;;;6.70;5.40;;;;;;;9.72;51.98;99657.03;214257;1279;140886;-67
2022/04/19 15:04:41;;;;;;;5.00;4.50;;;;;;;9.72;52.18;99657.88;214799;1279;142170;-66
2022/04/19 15:09:44;;;;;;;5.70;4.50;;;;;;;9.69;51.85;99659.36;214495;1279;140151;-71
2022/04/19 15:14:48;;;;;;;4.40;3.90;;;;;;;9.57;51.15;99664.59;214523;1277;141115;-69
2022/04/19 15:19:51;;;;;;;6.90;5.30;;;;;;;9.27;51.25;99665.43;215278;1279;140977;-70
2022/04/19 15:24:54;;;;;;;9.30;6.90;;;;;;;9.17;51.67;99669.06;215469;1279;140667;-71
2022/04/19 15:29:57;;;;;;;6.50;5.50;;;;;;;9.10;51.82;99671.66;213821;1279;140805;-75
2022/04/19 15:35:00;;;;;;;6.60;5.10;;;;;;;8.99;51.20;99677.29;215199;1279;142945;-77
2022/04/19 15:40:05;;;;;;;6.30;4.60;;;;;;;8.93;51.38;99676.10;213071;1279;140503;-71
2022/04/19 15:45:10;;;;;;;4.90;4.50;;;;;;;8.78;51.29;99680.32;212989;1279;140610;-74
2022/04/19 15:50:14;;;;;;;8.00;5.50;;;;;;;8.62;51.35;99679.94;214774;1279;140268;-71
2022/04/19 15:55:17;;;;;;;5.10;4.60;;;;;;;8.51;52.20;99687.98;213950;1280;140227;-74
2022/04/19 16:00:21;;;;;;;5.60;5.00;;;;;;;8.52;52.72;99689.28;213617;1280;140036;-76
2022/04/19 16:05:23;;;;;;;8.30;6.40;;;;;;;8.52;52.52;99687.31;213496;1278;139627;-70
2022/04/19 16:10:27;;;;;;;10.00;6.20;;;;;;;8.50;53.20;99687.30;214080;1279;141510;-72
2022/04/19 16:15:34;;;;;;;6.90;5.70;;;;;;;8.52;53.33;99683.80;213709;1279;141334;-73
2022/04/19 16:26:02;;;;;;;5.90;5.20;;;;;;;8.53;53.61;99683.26;213069;1278;140286;-71
2022/04/19 16:31:07;;;;;;;6.70;5.40;;;;;;;8.46;53.43;99685.70;212773;1278;140795;-75
2022/04/19 16:36:11;;;;;;;8.10;6.30;;;;;;;8.36;53.26;99682.31;212988;1278;139771;-68
2022/04/19 16:41:13;;;;;;;7.40;5.00;;;;;;;8.23;53.26;99686.54;213382;1279;140897;-70
2022/04/19 16:46:15;;;;;;;5.10;4.60;;;;;;;8.04;53.16;99690.84;213512;1279;140946;-68
2022/04/19 16:51:20;;;;;;;8.30;4.60;;;;;;;7.88;53.63;99691.34;214200;1278;139661;-69
2022/04/19 16:56:23;;;;;;;6.00;5.20;;;;;;;7.76;53.56;99699.06;214031;1278;139674;-71
2022/04/19 17:01:26;;;;;;;5.80;5.20;;;;;;;7.63;53.73;99706.88;212577;1281;140182;-68
2022/04/19 17:06:30;;;;;;;6.70;5.30;;;;;;;7.48;54.06;99702.55;212930;1278;141559;-73
2022/04/19 17:11:33;;;;;;;8.30;6.30;;;;;;;7.33;54.23;99705.26;212766;1278;141057;-69
2022/04/19 17:16:35;;;;;;;8.40;5.30;;;;;;;7.22;54.41;99712.84;213857;1279;141449;-72
2022/04/19 17:21:38;;;;;;;10.90;5.70;;;;;;;7.09;55.03;99714.59;213233;1278;140701;-73
2022/04/19 17:26:41;;;;;;;12.90;8.10;;;;;;;6.94;54.92;99719.20;213880;1278;141325;-74
2022/04/19 17:31:46;;;;;;;11.90;6.20;;;;;;;6.81;55.00;99723.52;215280;1278;140607;-73
2022/04/19 17:36:49;;;;;;;10.20;6.60;;;;;;;6.66;55.08;99724.34;214403;1279;140461;-72
2022/04/19 17:41:53;;;;;;;6.00;5.00;;;;;;;6.56;55.56;99726.80;215159;1278;140247;-71
2022/04/19 17:46:56;;;;;;;5.90;4.90;;;;;;;6.46;56.10;99729.02;214932;1278;140281;-71
2022/04/19 17:57:20;;;;;;;5.70;5.00;;;;;;;6.27;56.65;99732.30;215689;1277;140345;-71
2022/04/19 18:02:23;;;;;;;6.90;5.80;;;;;;;6.20;56.76;99737.77;213458;1277;140813;-71
2022/04/19 18:07:26;;;;;;;8.90;6.00;;;;;;;6.11;57.62;99737.98;213362;1278;140114;-68
2022/04/19 18:12:32;;;;;;;8.40;6.40;;;;;;;6.06;58.07;99742.07;213509;1279;140733;-70
2022/04/19 18:17:35;;;;;;;13.80;8.50;;;;;;;5.99;58.55;99740.41;212958;1279;139506;-70
2022/04/19 18:28:00;;;;;;;13.20;8.90;;;;;;;5.67;59.52;99747.20;213177;1278;139314;-70
2022/04/19 18:33:04;;;;;;;10.50;7.20;;;;;;;5.55;60.16;99744.83;212969;1277;139797;-66
2022/04/19 18:38:06;;;;;;;10.70;7.40;;;;;;;5.46;60.65;99750.25;212841;1279;139147;-70
2022/04/19 18:43:09;;;;;;;13.30;7.40;;;;;;;5.32;60.85;99753.45;212974;1278;139810;-68
2022/04/19 18:48:13;;;;;;;11.90;6.40;;;;;;;5.18;61.25;99754.81;213800;1277;141076;-69
2022/04/19 18:53:15;;;;;;;8.80;6.30;;;;;;;5.12;61.42;99755.73;213309;1279;141250;-68
2022/04/19 18:58:19;;;;;;;9.90;6.60;;;;;;;5.00;61.71;99759.87;214092;1277;140144;-69
2022/04/19 19:03:23;;;;;;;9.90;6.50;;;;;;;4.93;61.98;99764.68;213146;1279;139305;-69
2022/04/19 19:08:26;;;;;;;10.90;5.90;;;;;;;4.77;62.30;99763.08;214109;1278;139219;-69
2022/04/19 19:13:29;;;;;;;8.80;5.10;;;;;;;4.61;62.76;99766.23;213050;1277;139658;-69
2022/04/19 19:18:32;;;;;;;8.10;6.00;;;;;;;4.44;62.90;99769.77;214399;1277;140130;-69
2022/04/19 19:23:34;;;;;;;11.00;6.90;;;;;;;4.34;63.32;99770.59;213355;1279;141280;-68
2022/04/19 19:28:40;;;;;;;8.80;7.00;;;;;;;4.30;63.59;99773.29;212771;1279;142925;-68
2022/04/19 19:33:44;;;;;;;13.60;8.20;;;;;;;4.22;63.81;99774.91;212760;1277;141297;-68
2022/04/19 19:38:47;;;;;;;10.80;9.10;;;;;;;4.11;63.74;99770.84;214166;1278;141547;-68
2022/04/19 19:43:49;;;;;;;8.80;6.80;;;;;;;3.99;63.68;99771.80;214103;1277;141335;-69
2022/04/19 19:48:57;;;;;;;;;;;;;;;3.79;63.88;99774.48;213916;1278;140502;-70
2022/04/19 19:53:59;;;;;;;13.10;7.60;;;;;;;3.61;64.43;99769.63;215347;1278;126447;-69
2022/04/19 19:59:02;;;;;;;12.60;6.90;;;;;;;3.55;64.85;99768.40;214774;1278;140379;-69
2022/04/19 20:04:05;;;;;;;62.00;29.50;;;;;;;3.56;65.20;99765.69;213653;1279;140120;-68
2022/04/19 20:09:11;;;;;;;68.70;31.80;;;;;;;3.55;65.38;99758.66;212783;1278;163409;-68
2022/04/19 20:14:17;;;;;;;69.30;32.90;;;;;;;3.53;65.46;99760.67;213085;1277;142189;-70
2022/04/19 20:19:21;;;;;;;46.50;26.80;;;;;;;3.51;65.61;99758.05;213475;1277;142004;-68
2022/04/19 20:24:25;;;;;;;47.20;24.40;;;;;;;3.46;65.76;99759.21;213020;1278;142418;-67
2022/04/19 20:29:28;;;;;;;69.80;32.20;;;;;;;3.44;66.17;99756.81;213746;1277;144010;-68
2022/04/19 20:34:35;;;;;;;43.90;25.10;;;;;;;3.33;66.11;99757.67;213368;1277;142857;-67
2022/04/19 20:39:39;;;;;;;19.70;9.70;;;;;;;3.14;66.38;99755.96;212755;1279;141611;-67
2022/04/19 20:44:42;;;;;;;10.90;8.00;;;;;;;3.01;66.91;99756.33;213412;1279;142883;-67
2022/04/19 20:55:14;;;;;;;20.50;12.10;;;;;;;2.92;68.01;99760.72;213203;1279;140278;-67
2022/04/19 21:00:29;;;;;;;20.30;10.20;;;;;;;3.01;68.18;99760.17;213125;1281;142650;-66
2022/04/19 21:05:36;;;;;;;20.60;11.20;;;;;;;3.02;68.13;99760.73;213513;1279;141361;-67
2022/04/19 21:10:40;;;;;;;12.40;8.80;;;;;;;3.11;68.56;99761.77;213374;1279;141165;-67
2022/04/19 21:15:43;;;;;;;7.40;6.50;;;;;;;3.22;68.72;99755.52;213582;1279;141088;-67
2022/04/19 21:20:46;;;;;;;12.70;7.80;;;;;;;3.25;68.89;99759.14;213241;1279;141520;-68
2022/04/19 21:25:49;;;;;;;9.50;7.70;;;;;;;3.29;68.82;99757.96;214348;1279;141611;-69
2022/04/19 21:31:10;;;;;;;11.20;7.70;;;;;;;3.25;68.63;99755.98;214214;1278;138986;-69
2022/04/19 21:36:12;;;;;;;10.40;8.50;;;;;;;3.23;68.92;99763.65;214806;1279;139775;-68
2022/04/19 21:41:15;;;;;;;12.70;8.80;;;;;;;3.19;68.98;99765.55;215268;1279;140082;-68
2022/04/19 21:46:18;;;;;;;9.70;6.60;;;;;;;3.18;69.12;99764.60;215387;1279;139769;-69
2022/04/19 21:51:21;;;;;;;11.00;8.40;;;;;;;3.15;69.00;99765.14;214968;1279;140168;-68
2022/04/19 21:56:24;;;;;;;10.60;8.50;;;;;;;3.14;69.59;99763.30;215304;1279;139954;-67
2022/04/19 22:01:26;;;;;;;15.00;9.30;;;;;;;3.17;69.52;99757.34;215562;1279;142705;-70
2022/04/19 22:06:30;;;;;;;15.70;8.80;;;;;;;3.13;69.58;99758.52;215440;1279;140832;-70
2022/04/19 22:11:33;;;;;;;10.90;8.00;;;;;;;3.19;70.05;99759.72;213131;1279;141408;-67
2022/04/19 22:16:37;;;;;;;16.00;10.70;;;;;;;3.31;70.54;99754.87;213104;1277;141107;-67
2022/04/19 22:21:42;;;;;;;22.00;12.50;;;;;;;3.41;70.32;99742.59;214495;1277;140652;-66
2022/04/19 22:26:45;;;;;;;19.90;11.70;;;;;;;3.47;70.50;99732.67;213833;1279;140637;-69
2022/04/19 22:31:48;;;;;;;17.00;12.90;;;;;;;3.52;70.32;99723.48;213081;1278;140494;-67
2022/04/19 22:36:52;;;;;;;20.30;14.40;;;;;;;3.54;70.15;99718.59;213467;1279;141799;-68
2022/04/19 22:41:54;;;;;;;22.60;14.00;;;;;;;3.53;70.26;99717.40;212926;1279;140206;-67
2022/04/19 22:46:58;;;;;;;26.40;15.90;;;;;;;3.54;70.73;99718.35;212889;1278;140222;-68
2022/04/19 22:52:01;;;;;;;31.00;16.50;;;;;;;3.55;70.97;99720.02;212887;1279;588183;-67
2022/04/19 22:57:05;;;;;;;44.40;22.80;;;;;;;3.58;71.03;99706.79;213244;1279;140908;-67
2022/04/19 23:02:09;;;;;;;51.90;27.80;;;;;;;3.62;71.05;99703.22;213022;1279;140700;-67
2022/04/19 23:07:12;;;;;;;35.00;21.00;;;;;;;3.67;71.17;99696.76;213768;1279;153224;-68
2022/04/19 23:12:17;;;;;;;27.30;16.80;;;;;;;3.77;71.04;99694.19;212988;1279;141064;-67
2022/04/19 23:17:20;;;;;;;24.80;14.60;;;;;;;3.88;71.46;99695.86;213306;1279;141093;-68
2022/04/19 23:22:23;;;;;;;22.50;14.80;;;;;;;3.96;71.42;99692.56;213891;1279;140896;-68
2022/04/19 23:32:48;;;;;;;22.30;15.10;;;;;;;4.04;71.44;99685.73;213805;1279;141649;-66
2022/04/19 23:37:52;;;;;;;21.80;14.40;;;;;;;4.08;71.32;99682.75;213840;1278;140384;-67
2022/04/19 23:42:54;;;;;;;22.60;12.10;;;;;;;4.15;71.18;99679.31;214291;1279;140440;-67
2022/04/19 23:47:58;;;;;;;17.80;13.00;;;;;;;4.24;70.81;99678.73;212907;1279;140688;-65
2022/04/19 23:53:00;;;;;;;20.40;12.10;;;;;;;4.32;70.77;99669.21;214511;1281;141582;-68
2022/04/19 23:58:02;;;;;;;25.50;14.30;;;;;;;4.36;70.65;99666.10;214313;1279;139706;-68
